Accueil
METAR-TAF:

METAR-TAF

Aéroports :

Ajaccio, France

Aéroport d'Ajaccio-Napoléon-Bonaparte

latitude: 41-55N, longitude: 008-48E, altitude: 6 m

Observation

Le bulletin a été fait il y a 34 minutes, à 01:30 UTC
Vent 7 kt de nord/nord-est
Température 11°C
Humidité 82%
Pression 1015 hPa
Visibilité 10 km ou plus
pas de nuages en-dessous de 1500 mètres et pas de cumulonimbus.

METAR: LFKJ 200130Z AUTO 03007KT CAVOK 11/08 Q1015 NOSIG

Heure: 04:04 (02:04 UTC)

Prévision

Le bulletin a été fait il y a 6 heures et 4 minutes, à 20:00 UTC
Prévision valable du 19 à 21 UTC au 20 à 21 UTC
Vent 5 kt de nord-est
Visibilité 10 km ou plus
pas de nuages en-dessous de 1500 mètres et pas de cumulonimbus.
Evoluant progressivement
du 20 à 09 UTC au 20 à 11 UTC
Vent 10 kt de sud-ouest
Quelques nuages à une hauteur de 4000 ft

TAF: LFKJ 192000Z 1921/2021 05005KT CAVOK BECMG 2009/2011 23010KT FEW040

Observations et prévisions météorologiques de plus de 4000 aéroports (messages METAR et TAF).

Les stations disponibles sont représentées par des disques jaunes et rouges sur la carte.

Passer la souris dessus pour voir le nom de la station.

Cliquer dessus pour voir les observations et prévisions météorologiques.

Pour changer de carte: cliquez sur les boutons verts avec une croix noire pour zoomer, sur le bouton vert avec un tiret pour effectuer un zoom arrière, ou sur les flèches vertes pour les cartes adjacentes.


METAR-TAF: